sensor_id;sensor_type;location;lat;lon;timestamp;P1;durP1;ratioP1;P2;durP2;ratioP2
29908;SDS011;36247;51.952;6.146;2024-01-15T00:01:50;8.85;;;3.55;;
29908;SDS011;36247;51.952;6.146;2024-01-15T00:04:17;4.57;;;2.65;;
29908;SDS011;36247;51.952;6.146;2024-01-15T00:06:43;6.60;;;3.88;;
29908;SDS011;36247;51.952;6.146;2024-01-15T00:09:09;6.28;;;2.70;;
29908;SDS011;36247;51.952;6.146;2024-01-15T00:11:35;4.47;;;2.60;;
29908;SDS011;36247;51.952;6.146;2024-01-15T00:14:01;5.00;;;3.78;;
29908;SDS011;36247;51.952;6.146;2024-01-15T00:16:28;3.15;;;2.50;;
29908;SDS011;36247;51.952;6.146;2024-01-15T00:18:54;3.72;;;2.35;;
29908;SDS011;36247;51.952;6.146;2024-01-15T00:21:20;5.97;;;2.80;;
29908;SDS011;36247;51.952;6.146;2024-01-15T00:23:46;8.55;;;2.97;;
29908;SDS011;36247;51.952;6.146;2024-01-15T00:26:13;6.07;;;1.85;;
29908;SDS011;36247;51.952;6.146;2024-01-15T00:28:39;4.97;;;2.00;;
29908;SDS011;36247;51.952;6.146;2024-01-15T00:31:05;6.45;;;2.10;;
29908;SDS011;36247;51.952;6.146;2024-01-15T00:33:31;9.32;;;1.88;;
29908;SDS011;36247;51.952;6.146;2024-01-15T00:35:57;8.27;;;2.22;;
29908;SDS011;36247;51.952;6.146;2024-01-15T00:38:23;6.05;;;1.55;;
29908;SDS011;36247;51.952;6.146;2024-01-15T00:40:49;5.20;;;1.83;;
29908;SDS011;36247;51.952;6.146;2024-01-15T00:43:16;6.03;;;1.70;;
29908;SDS011;36247;51.952;6.146;2024-01-15T00:45:44;10.88;;;2.22;;
29908;SDS011;36247;51.952;6.146;2024-01-15T00:48:10;8.95;;;2.40;;
29908;SDS011;36247;51.952;6.146;2024-01-15T00:50:36;10.63;;;2.25;;
29908;SDS011;36247;51.952;6.146;2024-01-15T00:53:02;5.45;;;1.95;;
29908;SDS011;36247;51.952;6.146;2024-01-15T00:55:28;4.72;;;1.90;;
29908;SDS011;36247;51.952;6.146;2024-01-15T00:57:54;3.95;;;2.10;;
29908;SDS011;36247;51.952;6.146;2024-01-15T01:00:20;12.48;;;2.47;;
29908;SDS011;36247;51.952;6.146;2024-01-15T01:02:46;6.35;;;2.90;;
29908;SDS011;36247;51.952;6.146;2024-01-15T01:05:12;9.30;;;1.80;;
29908;SDS011;36247;51.952;6.146;2024-01-15T01:07:39;8.82;;;1.83;;
29908;SDS011;36247;51.952;6.146;2024-01-15T01:10:05;10.40;;;2.08;;
29908;SDS011;36247;51.952;6.146;2024-01-15T01:12:35;9.30;;;2.22;;
29908;SDS011;36247;51.952;6.146;2024-01-15T01:15:02;4.22;;;1.70;;
29908;SDS011;36247;51.952;6.146;2024-01-15T01:17:28;5.43;;;2.00;;
29908;SDS011;36247;51.952;6.146;2024-01-15T01:19:55;7.85;;;2.40;;
29908;SDS011;36247;51.952;6.146;2024-01-15T01:22:21;9.55;;;2.22;;
29908;SDS011;36247;51.952;6.146;2024-01-15T01:24:48;10.38;;;3.00;;
29908;SDS011;36247;51.952;6.146;2024-01-15T01:27:14;9.35;;;3.35;;
29908;SDS011;36247;51.952;6.146;2024-01-15T01:29:40;7.57;;;2.22;;
29908;SDS011;36247;51.952;6.146;2024-01-15T01:32:06;10.35;;;2.30;;
29908;SDS011;36247;51.952;6.146;2024-01-15T01:34:32;9.35;;;6.07;;
29908;SDS011;36247;51.952;6.146;2024-01-15T01:36:59;7.03;;;2.45;;
29908;SDS011;36247;51.952;6.146;2024-01-15T01:39:27;11.00;;;3.25;;
29908;SDS011;36247;51.952;6.146;2024-01-15T01:41:53;10.32;;;2.55;;
29908;SDS011;36247;51.952;6.146;2024-01-15T01:44:19;7.35;;;2.08;;
29908;SDS011;36247;51.952;6.146;2024-01-15T01:46:46;6.65;;;2.13;;
29908;SDS011;36247;51.952;6.146;2024-01-15T01:49:12;5.85;;;1.90;;
29908;SDS011;36247;51.952;6.146;2024-01-15T01:51:38;7.35;;;2.20;;
29908;SDS011;36247;51.952;6.146;2024-01-15T01:54:04;10.15;;;3.08;;
29908;SDS011;36247;51.952;6.146;2024-01-15T01:56:33;4.25;;;1.50;;
29908;SDS011;36247;51.952;6.146;2024-01-15T01:59:00;9.35;;;2.25;;
29908;SDS011;36247;51.952;6.146;2024-01-15T02:01:28;7.28;;;1.95;;
29908;SDS011;36247;51.952;6.146;2024-01-15T02:03:55;12.90;;;2.75;;
29908;SDS011;36247;51.952;6.146;2024-01-15T02:06:23;11.23;;;2.60;;
29908;SDS011;36247;51.952;6.146;2024-01-15T02:08:49;12.95;;;2.90;;
29908;SDS011;36247;51.952;6.146;2024-01-15T02:11:16;9.10;;;3.17;;
29908;SDS011;36247;51.952;6.146;2024-01-15T02:13:42;9.68;;;3.05;;
29908;SDS011;36247;51.952;6.146;2024-01-15T02:16:08;13.80;;;3.10;;
29908;SDS011;36247;51.952;6.146;2024-01-15T02:18:41;9.23;;;3.17;;
29908;SDS011;36247;51.952;6.146;2024-01-15T02:21:11;12.52;;;3.10;;
29908;SDS011;36247;51.952;6.146;2024-01-15T02:23:37;13.10;;;3.45;;
29908;SDS011;36247;51.952;6.146;2024-01-15T02:26:10;15.50;;;3.95;;
29908;SDS011;36247;51.952;6.146;2024-01-15T02:28:37;10.65;;;3.58;;
29908;SDS011;36247;51.952;6.146;2024-01-15T02:31:03;10.75;;;2.97;;
29908;SDS011;36247;51.952;6.146;2024-01-15T02:33:32;22.55;;;4.70;;
29908;SDS011;36247;51.952;6.146;2024-01-15T02:35:58;12.15;;;3.35;;
29908;SDS011;36247;51.952;6.146;2024-01-15T02:38:24;12.30;;;3.03;;
29908;SDS011;36247;51.952;6.146;2024-01-15T02:40:50;12.27;;;4.85;;
29908;SDS011;36247;51.952;6.146;2024-01-15T02:43:17;10.75;;;2.70;;
29908;SDS011;36247;51.952;6.146;2024-01-15T02:45:45;9.43;;;2.67;;
29908;SDS011;36247;51.952;6.146;2024-01-15T02:48:12;14.57;;;3.72;;
29908;SDS011;36247;51.952;6.146;2024-01-15T02:50:41;13.30;;;2.90;;
29908;SDS011;36247;51.952;6.146;2024-01-15T02:53:07;15.93;;;3.50;;
29908;SDS011;36247;51.952;6.146;2024-01-15T02:55:36;9.68;;;2.80;;
29908;SDS011;36247;51.952;6.146;2024-01-15T02:58:03;12.63;;;2.60;;
29908;SDS011;36247;51.952;6.146;2024-01-15T03:00:35;16.60;;;2.67;;
29908;SDS011;36247;51.952;6.146;2024-01-15T03:03:01;16.65;;;3.13;;
29908;SDS011;36247;51.952;6.146;2024-01-15T03:05:30;16.08;;;3.40;;
29908;SDS011;36247;51.952;6.146;2024-01-15T03:07:59;9.63;;;2.72;;
29908;SDS011;36247;51.952;6.146;2024-01-15T03:10:25;14.18;;;4.10;;
29908;SDS011;36247;51.952;6.146;2024-01-15T03:12:55;14.10;;;2.28;;
29908;SDS011;36247;51.952;6.146;2024-01-15T03:15:22;6.13;;;2.10;;
29908;SDS011;36247;51.952;6.146;2024-01-15T03:17:49;17.63;;;4.13;;
29908;SDS011;36247;51.952;6.146;2024-01-15T03:20:16;10.38;;;2.08;;
29908;SDS011;36247;51.952;6.146;2024-01-15T03:22:43;11.05;;;2.25;;
29908;SDS011;36247;51.952;6.146;2024-01-15T03:25:09;14.13;;;2.30;;
29908;SDS011;36247;51.952;6.146;2024-01-15T03:27:35;9.68;;;2.28;;
29908;SDS011;36247;51.952;6.146;2024-01-15T03:30:04;12.35;;;2.80;;
29908;SDS011;36247;51.952;6.146;2024-01-15T03:32:34;13.98;;;2.60;;
29908;SDS011;36247;51.952;6.146;2024-01-15T03:35:01;12.98;;;2.55;;
29908;SDS011;36247;51.952;6.146;2024-01-15T03:37:27;12.60;;;2.42;;
29908;SDS011;36247;51.952;6.146;2024-01-15T03:39:54;14.68;;;2.55;;
29908;SDS011;36247;51.952;6.146;2024-01-15T03:42:20;17.42;;;2.85;;
29908;SDS011;36247;51.952;6.146;2024-01-15T03:44:50;7.85;;;2.58;;
29908;SDS011;36247;51.952;6.146;2024-01-15T03:47:17;6.07;;;2.20;;
29908;SDS011;36247;51.952;6.146;2024-01-15T03:49:43;14.27;;;2.83;;
29908;SDS011;36247;51.952;6.146;2024-01-15T03:52:10;13.02;;;2.40;;
29908;SDS011;36247;51.952;6.146;2024-01-15T03:54:39;8.02;;;2.17;;
29908;SDS011;36247;51.952;6.146;2024-01-15T03:57:08;11.88;;;2.80;;
29908;SDS011;36247;51.952;6.146;2024-01-15T03:59:37;10.50;;;1.77;;
29908;SDS011;36247;51.952;6.146;2024-01-15T04:02:05;11.05;;;2.60;;
29908;SDS011;36247;51.952;6.146;2024-01-15T04:04:31;10.15;;;2.20;;
29908;SDS011;36247;51.952;6.146;2024-01-15T04:06:58;7.72;;;2.05;;
29908;SDS011;36247;51.952;6.146;2024-01-15T04:09:29;6.68;;;2.10;;
29908;SDS011;36247;51.952;6.146;2024-01-15T04:11:56;9.10;;;1.83;;
29908;SDS011;36247;51.952;6.146;2024-01-15T04:14:21;8.70;;;2.40;;
29908;SDS011;36247;51.952;6.146;2024-01-15T04:16:48;17.77;;;2.70;;
29908;SDS011;36247;51.952;6.146;2024-01-15T04:19:14;11.90;;;2.38;;
29908;SDS011;36247;51.952;6.146;2024-01-15T04:21:40;10.65;;;2.70;;
29908;SDS011;36247;51.952;6.146;2024-01-15T04:24:06;11.88;;;1.92;;
29908;SDS011;36247;51.952;6.146;2024-01-15T04:26:33;5.60;;;2.10;;
29908;SDS011;36247;51.952;6.146;2024-01-15T04:28:59;8.30;;;1.75;;
29908;SDS011;36247;51.952;6.146;2024-01-15T04:31:26;9.52;;;1.50;;
29908;SDS011;36247;51.952;6.146;2024-01-15T04:33:52;12.23;;;1.70;;
29908;SDS011;36247;51.952;6.146;2024-01-15T04:36:19;8.25;;;2.22;;
29908;SDS011;36247;51.952;6.146;2024-01-15T04:38:48;8.38;;;2.00;;
29908;SDS011;36247;51.952;6.146;2024-01-15T04:41:17;9.98;;;2.00;;
29908;SDS011;36247;51.952;6.146;2024-01-15T04:43:43;12.02;;;2.33;;
29908;SDS011;36247;51.952;6.146;2024-01-15T04:46:10;6.68;;;2.15;;
29908;SDS011;36247;51.952;6.146;2024-01-15T04:48:36;5.80;;;2.30;;
29908;SDS011;36247;51.952;6.146;2024-01-15T04:51:05;11.05;;;2.63;;
29908;SDS011;36247;51.952;6.146;2024-01-15T04:53:34;12.52;;;2.47;;
29908;SDS011;36247;51.952;6.146;2024-01-15T04:56:01;10.02;;;1.75;;
29908;SDS011;36247;51.952;6.146;2024-01-15T04:58:36;14.95;;;3.67;;
29908;SDS011;36247;51.952;6.146;2024-01-15T05:01:03;10.85;;;2.63;;
29908;SDS011;36247;51.952;6.146;2024-01-15T05:03:29;11.82;;;2.10;;
29908;SDS011;36247;51.952;6.146;2024-01-15T05:05:55;13.98;;;4.50;;
29908;SDS011;36247;51.952;6.146;2024-01-15T05:08:21;6.22;;;2.63;;
29908;SDS011;36247;51.952;6.146;2024-01-15T05:10:47;13.68;;;3.47;;
29908;SDS011;36247;51.952;6.146;2024-01-15T05:13:13;11.30;;;2.88;;
29908;SDS011;36247;51.952;6.146;2024-01-15T05:15:39;18.83;;;3.58;;
29908;SDS011;36247;51.952;6.146;2024-01-15T05:18:05;14.88;;;3.13;;
29908;SDS011;36247;51.952;6.146;2024-01-15T05:20:32;13.75;;;4.47;;
29908;SDS011;36247;51.952;6.146;2024-01-15T05:22:58;16.02;;;4.13;;
29908;SDS011;36247;51.952;6.146;2024-01-15T05:25:24;13.52;;;3.97;;
29908;SDS011;36247;51.952;6.146;2024-01-15T05:27:50;16.42;;;3.40;;
29908;SDS011;36247;51.952;6.146;2024-01-15T05:30:16;16.10;;;3.97;;
29908;SDS011;36247;51.952;6.146;2024-01-15T05:32:42;15.55;;;5.95;;
29908;SDS011;36247;51.952;6.146;2024-01-15T05:35:08;18.20;;;4.53;;
29908;SDS011;36247;51.952;6.146;2024-01-15T05:37:35;10.32;;;2.88;;
29908;SDS011;36247;51.952;6.146;2024-01-15T05:40:05;15.32;;;3.35;;
29908;SDS011;36247;51.952;6.146;2024-01-15T05:42:41;13.18;;;3.92;;
29908;SDS011;36247;51.952;6.146;2024-01-15T05:45:08;7.55;;;2.70;;
29908;SDS011;36247;51.952;6.146;2024-01-15T05:47:35;9.38;;;3.33;;
29908;SDS011;36247;51.952;6.146;2024-01-15T05:50:01;12.35;;;2.65;;
29908;SDS011;36247;51.952;6.146;2024-01-15T05:52:30;9.10;;;3.00;;
29908;SDS011;36247;51.952;6.146;2024-01-15T05:54:57;13.48;;;3.53;;
29908;SDS011;36247;51.952;6.146;2024-01-15T05:57:23;9.35;;;3.40;;
29908;SDS011;36247;51.952;6.146;2024-01-15T05:59:49;9.50;;;3.03;;
29908;SDS011;36247;51.952;6.146;2024-01-15T06:02:15;10.25;;;4.47;;
29908;SDS011;36247;51.952;6.146;2024-01-15T06:04:41;10.45;;;3.15;;
29908;SDS011;36247;51.952;6.146;2024-01-15T06:07:07;10.60;;;3.28;;
29908;SDS011;36247;51.952;6.146;2024-01-15T06:09:33;11.02;;;2.95;;
29908;SDS011;36247;51.952;6.146;2024-01-15T06:11:59;10.70;;;3.55;;
29908;SDS011;36247;51.952;6.146;2024-01-15T06:14:25;10.48;;;4.10;;
29908;SDS011;36247;51.952;6.146;2024-01-15T06:16:52;9.23;;;3.67;;
29908;SDS011;36247;51.952;6.146;2024-01-15T06:19:17;7.97;;;3.60;;
29908;SDS011;36247;51.952;6.146;2024-01-15T06:21:43;7.55;;;3.35;;
29908;SDS011;36247;51.952;6.146;2024-01-15T06:24:15;9.55;;;3.83;;
29908;SDS011;36247;51.952;6.146;2024-01-15T06:26:46;11.68;;;3.53;;
29908;SDS011;36247;51.952;6.146;2024-01-15T06:29:16;5.88;;;2.55;;
29908;SDS011;36247;51.952;6.146;2024-01-15T06:31:47;16.10;;;4.15;;
29908;SDS011;36247;51.952;6.146;2024-01-15T06:34:16;6.70;;;3.42;;
29908;SDS011;36247;51.952;6.146;2024-01-15T06:36:46;7.65;;;4.65;;
29908;SDS011;36247;51.952;6.146;2024-01-15T06:39:17;5.88;;;3.35;;
29908;SDS011;36247;51.952;6.146;2024-01-15T06:41:43;4.47;;;3.38;;
29908;SDS011;36247;51.952;6.146;2024-01-15T06:44:10;13.30;;;3.72;;
29908;SDS011;36247;51.952;6.146;2024-01-15T06:46:42;9.00;;;3.83;;
29908;SDS011;36247;51.952;6.146;2024-01-15T06:49:09;7.95;;;3.65;;
29908;SDS011;36247;51.952;6.146;2024-01-15T06:51:35;10.45;;;3.28;;
29908;SDS011;36247;51.952;6.146;2024-01-15T06:54:06;6.85;;;2.92;;
29908;SDS011;36247;51.952;6.146;2024-01-15T06:56:39;4.47;;;2.80;;
29908;SDS011;36247;51.952;6.146;2024-01-15T06:59:08;13.48;;;4.35;;
29908;SDS011;36247;51.952;6.146;2024-01-15T07:01:39;8.13;;;3.60;;
29908;SDS011;36247;51.952;6.146;2024-01-15T07:04:05;7.60;;;3.60;;
29908;SDS011;36247;51.952;6.146;2024-01-15T07:06:34;7.07;;;3.90;;
29908;SDS011;36247;51.952;6.146;2024-01-15T07:09:00;13.45;;;4.20;;
29908;SDS011;36247;51.952;6.146;2024-01-15T07:11:26;9.30;;;4.35;;
29908;SDS011;36247;51.952;6.146;2024-01-15T07:13:52;9.85;;;4.97;;
29908;SDS011;36247;51.952;6.146;2024-01-15T07:16:17;6.95;;;4.95;;
29908;SDS011;36247;51.952;6.146;2024-01-15T07:18:43;11.43;;;5.95;;
29908;SDS011;36247;51.952;6.146;2024-01-15T07:21:09;11.68;;;5.97;;
29908;SDS011;36247;51.952;6.146;2024-01-15T07:23:35;11.15;;;6.63;;
29908;SDS011;36247;51.952;6.146;2024-01-15T07:26:01;13.18;;;7.30;;
29908;SDS011;36247;51.952;6.146;2024-01-15T07:28:30;14.25;;;7.88;;
29908;SDS011;36247;51.952;6.146;2024-01-15T07:30:56;14.55;;;9.25;;
29908;SDS011;36247;51.952;6.146;2024-01-15T07:33:22;15.32;;;10.20;;
29908;SDS011;36247;51.952;6.146;2024-01-15T07:35:48;21.50;;;12.63;;
29908;SDS011;36247;51.952;6.146;2024-01-15T07:38:14;17.85;;;11.20;;
29908;SDS011;36247;51.952;6.146;2024-01-15T07:40:40;21.40;;;12.18;;
29908;SDS011;36247;51.952;6.146;2024-01-15T07:43:05;19.48;;;12.55;;
29908;SDS011;36247;51.952;6.146;2024-01-15T07:45:31;19.00;;;13.05;;
29908;SDS011;36247;51.952;6.146;2024-01-15T07:47:58;19.20;;;12.38;;
29908;SDS011;36247;51.952;6.146;2024-01-15T07:50:28;33.13;;;16.58;;
29908;SDS011;36247;51.952;6.146;2024-01-15T07:52:57;21.05;;;13.07;;
29908;SDS011;36247;51.952;6.146;2024-01-15T07:55:23;18.25;;;12.40;;
29908;SDS011;36247;51.952;6.146;2024-01-15T07:57:49;16.25;;;12.02;;
29908;SDS011;36247;51.952;6.146;2024-01-15T08:00:15;16.85;;;12.27;;
29908;SDS011;36247;51.952;6.146;2024-01-15T08:02:42;19.45;;;13.05;;
29908;SDS011;36247;51.952;6.146;2024-01-15T08:05:07;18.38;;;11.70;;
29908;SDS011;36247;51.952;6.146;2024-01-15T08:07:33;14.57;;;10.95;;
29908;SDS011;36247;51.952;6.146;2024-01-15T08:09:59;16.02;;;10.75;;
29908;SDS011;36247;51.952;6.146;2024-01-15T08:12:25;16.73;;;10.68;;
29908;SDS011;36247;51.952;6.146;2024-01-15T08:14:51;15.18;;;11.15;;
29908;SDS011;36247;51.952;6.146;2024-01-15T08:17:17;14.85;;;10.02;;
29908;SDS011;36247;51.952;6.146;2024-01-15T08:19:46;14.45;;;10.48;;
29908;SDS011;36247;51.952;6.146;2024-01-15T08:22:12;14.90;;;10.20;;
29908;SDS011;36247;51.952;6.146;2024-01-15T08:24:37;11.30;;;8.63;;
29908;SDS011;36247;51.952;6.146;2024-01-15T08:27:03;9.82;;;7.70;;
29908;SDS011;36247;51.952;6.146;2024-01-15T08:29:30;10.68;;;8.02;;
29908;SDS011;36247;51.952;6.146;2024-01-15T08:31:58;13.30;;;8.85;;
29908;SDS011;36247;51.952;6.146;2024-01-15T08:34:24;11.95;;;8.52;;
29908;SDS011;36247;51.952;6.146;2024-01-15T08:36:50;12.85;;;8.85;;
29908;SDS011;36247;51.952;6.146;2024-01-15T08:39:16;12.02;;;8.80;;
29908;SDS011;36247;51.952;6.146;2024-01-15T08:41:45;15.00;;;8.50;;
29908;SDS011;36247;51.952;6.146;2024-01-15T08:44:13;9.07;;;7.22;;
29908;SDS011;36247;51.952;6.146;2024-01-15T08:46:40;10.10;;;7.90;;
29908;SDS011;36247;51.952;6.146;2024-01-15T08:49:06;10.07;;;7.35;;
29908;SDS011;36247;51.952;6.146;2024-01-15T08:51:32;8.70;;;7.13;;
29908;SDS011;36247;51.952;6.146;2024-01-15T08:53:58;8.27;;;6.60;;
29908;SDS011;36247;51.952;6.146;2024-01-15T08:56:24;8.57;;;5.80;;
29908;SDS011;36247;51.952;6.146;2024-01-15T08:58:52;10.50;;;6.47;;
29908;SDS011;36247;51.952;6.146;2024-01-15T09:01:18;9.38;;;5.72;;
29908;SDS011;36247;51.952;6.146;2024-01-15T09:03:44;8.07;;;5.47;;
29908;SDS011;36247;51.952;6.146;2024-01-15T09:06:11;12.38;;;6.32;;
29908;SDS011;36247;51.952;6.146;2024-01-15T09:08:37;8.80;;;4.80;;
29908;SDS011;36247;51.952;6.146;2024-01-15T09:11:03;9.30;;;5.93;;
29908;SDS011;36247;51.952;6.146;2024-01-15T09:13:28;11.73;;;5.05;;
29908;SDS011;36247;51.952;6.146;2024-01-15T09:15:54;8.25;;;5.10;;
29908;SDS011;36247;51.952;6.146;2024-01-15T09:18:20;5.30;;;4.10;;
29908;SDS011;36247;51.952;6.146;2024-01-15T09:20:45;7.93;;;4.45;;
29908;SDS011;36247;51.952;6.146;2024-01-15T09:23:11;9.32;;;4.38;;
29908;SDS011;36247;51.952;6.146;2024-01-15T09:25:37;6.38;;;4.50;;
29908;SDS011;36247;51.952;6.146;2024-01-15T09:28:03;7.53;;;4.45;;
29908;SDS011;36247;51.952;6.146;2024-01-15T09:30:29;7.72;;;4.20;;
29908;SDS011;36247;51.952;6.146;2024-01-15T09:32:54;6.45;;;4.10;;
29908;SDS011;36247;51.952;6.146;2024-01-15T09:35:20;6.65;;;4.18;;
29908;SDS011;36247;51.952;6.146;2024-01-15T09:37:46;10.80;;;4.00;;
29908;SDS011;36247;51.952;6.146;2024-01-15T09:40:13;14.00;;;4.93;;
29908;SDS011;36247;51.952;6.146;2024-01-15T09:42:42;10.77;;;4.55;;
29908;SDS011;36247;51.952;6.146;2024-01-15T09:45:08;9.57;;;4.00;;
29908;SDS011;36247;51.952;6.146;2024-01-15T09:47:37;8.80;;;4.75;;
29908;SDS011;36247;51.952;6.146;2024-01-15T09:50:04;6.35;;;4.35;;
29908;SDS011;36247;51.952;6.146;2024-01-15T09:52:30;10.75;;;5.65;;
29908;SDS011;36247;51.952;6.146;2024-01-15T09:54:58;11.60;;;5.53;;
29908;SDS011;36247;51.952;6.146;2024-01-15T09:57:25;9.73;;;5.40;;
29908;SDS011;36247;51.952;6.146;2024-01-15T09:59:51;8.88;;;5.28;;
29908;SDS011;36247;51.952;6.146;2024-01-15T10:02:17;6.35;;;3.92;;
29908;SDS011;36247;51.952;6.146;2024-01-15T10:04:44;9.15;;;4.10;;
29908;SDS011;36247;51.952;6.146;2024-01-15T10:07:10;8.40;;;4.22;;
29908;SDS011;36247;51.952;6.146;2024-01-15T10:09:42;5.45;;;2.95;;
29908;SDS011;36247;51.952;6.146;2024-01-15T10:12:08;6.18;;;2.97;;
29908;SDS011;36247;51.952;6.146;2024-01-15T10:14:36;6.30;;;3.13;;
29908;SDS011;36247;51.952;6.146;2024-01-15T10:17:13;15.27;;;3.10;;
29908;SDS011;36247;51.952;6.146;2024-01-15T10:19:40;6.97;;;3.88;;
29908;SDS011;36247;51.952;6.146;2024-01-15T10:22:08;7.40;;;2.30;;
29908;SDS011;36247;51.952;6.146;2024-01-15T10:24:39;5.13;;;2.22;;
29908;SDS011;36247;51.952;6.146;2024-01-15T10:27:09;4.80;;;2.08;;
29908;SDS011;36247;51.952;6.146;2024-01-15T10:29:36;3.08;;;1.80;;
29908;SDS011;36247;51.952;6.146;2024-01-15T10:32:02;5.50;;;2.35;;
29908;SDS011;36247;51.952;6.146;2024-01-15T10:34:32;7.22;;;1.60;;
29908;SDS011;36247;51.952;6.146;2024-01-15T10:36:58;3.22;;;1.35;;
29908;SDS011;36247;51.952;6.146;2024-01-15T10:39:25;3.60;;;2.10;;
29908;SDS011;36247;51.952;6.146;2024-01-15T10:41:56;3.08;;;1.45;;
29908;SDS011;36247;51.952;6.146;2024-01-15T10:44:22;3.33;;;1.67;;
29908;SDS011;36247;51.952;6.146;2024-01-15T10:46:48;4.78;;;2.13;;
29908;SDS011;36247;51.952;6.146;2024-01-15T10:49:14;3.95;;;1.58;;
29908;SDS011;36247;51.952;6.146;2024-01-15T10:51:41;7.72;;;1.80;;
29908;SDS011;36247;51.952;6.146;2024-01-15T10:54:09;6.95;;;1.73;;
29908;SDS011;36247;51.952;6.146;2024-01-15T10:56:37;8.98;;;2.00;;
29908;SDS011;36247;51.952;6.146;2024-01-15T10:59:04;6.30;;;2.25;;
29908;SDS011;36247;51.952;6.146;2024-01-15T11:01:33;7.32;;;3.42;;
29908;SDS011;36247;51.952;6.146;2024-01-15T11:04:00;5.57;;;2.42;;
29908;SDS011;36247;51.952;6.146;2024-01-15T11:06:25;10.00;;;3.92;;
29908;SDS011;36247;51.952;6.146;2024-01-15T11:08:54;10.18;;;3.72;;
29908;SDS011;36247;51.952;6.146;2024-01-15T11:11:20;5.75;;;4.05;;
29908;SDS011;36247;51.952;6.146;2024-01-15T11:13:47;9.50;;;3.90;;
29908;SDS011;36247;51.952;6.146;2024-01-15T11:16:16;8.23;;;4.38;;
29908;SDS011;36247;51.952;6.146;2024-01-15T11:18:43;12.63;;;4.90;;
29908;SDS011;36247;51.952;6.146;2024-01-15T11:21:31;9.93;;;4.78;;
29908;SDS011;36247;51.952;6.146;2024-01-15T11:23:58;6.60;;;4.68;;
29908;SDS011;36247;51.952;6.146;2024-01-15T11:28:55;6.40;;;5.20;;
29908;SDS011;36247;51.952;6.146;2024-01-15T11:34:49;8.63;;;5.55;;
29908;SDS011;36247;51.952;6.146;2024-01-15T11:37:56;5.30;;;4.35;;
29908;SDS011;36247;51.952;6.146;2024-01-15T11:42:59;9.32;;;5.10;;
29908;SDS011;36247;51.952;6.146;2024-01-15T11:45:25;11.57;;;4.57;;
29908;SDS011;36247;51.952;6.146;2024-01-15T11:50:45;8.13;;;3.70;;
29908;SDS011;36247;51.952;6.146;2024-01-15T11:55:53;5.43;;;2.88;;
29908;SDS011;36247;51.952;6.146;2024-01-15T11:58:26;10.95;;;3.05;;
29908;SDS011;36247;51.952;6.146;2024-01-15T12:00:55;8.82;;;3.30;;
29908;SDS011;36247;51.952;6.146;2024-01-15T12:03:27;8.55;;;3.03;;
29908;SDS011;36247;51.952;6.146;2024-01-15T12:08:43;6.25;;;2.78;;
29908;SDS011;36247;51.952;6.146;2024-01-15T12:11:13;11.48;;;3.50;;
29908;SDS011;36247;51.952;6.146;2024-01-15T12:13:42;5.10;;;2.65;;
29908;SDS011;36247;51.952;6.146;2024-01-15T12:16:08;6.90;;;2.50;;
29908;SDS011;36247;51.952;6.146;2024-01-15T12:18:35;4.55;;;2.95;;
29908;SDS011;36247;51.952;6.146;2024-01-15T12:21:02;7.28;;;2.90;;
29908;SDS011;36247;51.952;6.146;2024-01-15T12:23:30;10.85;;;3.15;;
29908;SDS011;36247;51.952;6.146;2024-01-15T12:26:02;6.25;;;2.65;;
29908;SDS011;36247;51.952;6.146;2024-01-15T12:28:28;10.35;;;3.08;;
29908;SDS011;36247;51.952;6.146;2024-01-15T12:30:55;7.45;;;2.55;;
29908;SDS011;36247;51.952;6.146;2024-01-15T12:33:21;6.10;;;2.00;;
29908;SDS011;36247;51.952;6.146;2024-01-15T12:35:47;9.05;;;2.15;;
29908;SDS011;36247;51.952;6.146;2024-01-15T12:38:13;9.20;;;2.53;;
29908;SDS011;36247;51.952;6.146;2024-01-15T12:40:39;10.15;;;2.30;;
29908;SDS011;36247;51.952;6.146;2024-01-15T12:43:05;12.00;;;2.10;;
29908;SDS011;36247;51.952;6.146;2024-01-15T12:45:32;8.38;;;3.17;;
29908;SDS011;36247;51.952;6.146;2024-01-15T12:47:58;7.05;;;2.63;;
29908;SDS011;36247;51.952;6.146;2024-01-15T12:50:25;7.05;;;2.00;;
29908;SDS011;36247;51.952;6.146;2024-01-15T12:52:52;6.32;;;2.03;;
29908;SDS011;36247;51.952;6.146;2024-01-15T12:55:17;5.80;;;1.30;;
29908;SDS011;36247;51.952;6.146;2024-01-15T12:57:44;2.78;;;1.40;;
29908;SDS011;36247;51.952;6.146;2024-01-15T13:00:11;4.82;;;1.45;;
29908;SDS011;36247;51.952;6.146;2024-01-15T13:02:38;4.40;;;1.27;;
29908;SDS011;36247;51.952;6.146;2024-01-15T13:05:05;1.52;;;1.00;;
29908;SDS011;36247;51.952;6.146;2024-01-15T13:07:33;2.85;;;1.15;;
29908;SDS011;36247;51.952;6.146;2024-01-15T13:09:59;2.25;;;1.20;;
29908;SDS011;36247;51.952;6.146;2024-01-15T13:12:25;5.78;;;1.42;;
29908;SDS011;36247;51.952;6.146;2024-01-15T13:14:51;4.63;;;1.98;;
29908;SDS011;36247;51.952;6.146;2024-01-15T13:17:17;3.13;;;1.10;;
29908;SDS011;36247;51.952;6.146;2024-01-15T13:19:42;2.63;;;1.38;;
29908;SDS011;36247;51.952;6.146;2024-01-15T13:22:08;4.20;;;1.67;;
29908;SDS011;36247;51.952;6.146;2024-01-15T13:24:36;2.65;;;1.63;;
29908;SDS011;36247;51.952;6.146;2024-01-15T13:27:03;2.40;;;1.40;;
29908;SDS011;36247;51.952;6.146;2024-01-15T13:29:32;6.80;;;1.90;;
29908;SDS011;36247;51.952;6.146;2024-01-15T13:31:59;3.63;;;3.08;;
29908;SDS011;36247;51.952;6.146;2024-01-15T13:34:24;4.18;;;1.70;;
29908;SDS011;36247;51.952;6.146;2024-01-15T13:36:50;9.07;;;2.95;;
29908;SDS011;36247;51.952;6.146;2024-01-15T13:39:16;4.70;;;2.40;;
29908;SDS011;36247;51.952;6.146;2024-01-15T13:41:46;6.35;;;2.13;;
29908;SDS011;36247;51.952;6.146;2024-01-15T13:44:15;3.50;;;1.52;;
29908;SDS011;36247;51.952;6.146;2024-01-15T13:46:41;5.63;;;2.00;;
29908;SDS011;36247;51.952;6.146;2024-01-15T13:49:07;7.03;;;2.72;;
29908;SDS011;36247;51.952;6.146;2024-01-15T13:51:34;6.60;;;2.72;;
29908;SDS011;36247;51.952;6.146;2024-01-15T13:54:02;6.57;;;2.30;;
29908;SDS011;36247;51.952;6.146;2024-01-15T13:56:30;7.22;;;1.80;;
29908;SDS011;36247;51.952;6.146;2024-01-15T13:58:58;4.85;;;1.50;;
29908;SDS011;36247;51.952;6.146;2024-01-15T14:01:24;6.68;;;1.80;;
29908;SDS011;36247;51.952;6.146;2024-01-15T14:03:55;4.32;;;1.90;;
29908;SDS011;36247;51.952;6.146;2024-01-15T14:06:21;8.75;;;2.97;;
29908;SDS011;36247;51.952;6.146;2024-01-15T14:08:46;4.18;;;1.67;;
29908;SDS011;36247;51.952;6.146;2024-01-15T14:11:13;5.45;;;1.90;;
29908;SDS011;36247;51.952;6.146;2024-01-15T14:13:38;21.65;;;2.70;;
29908;SDS011;36247;51.952;6.146;2024-01-15T14:16:04;6.25;;;2.00;;
29908;SDS011;36247;51.952;6.146;2024-01-15T14:18:30;6.25;;;2.28;;
29908;SDS011;36247;51.952;6.146;2024-01-15T14:20:56;5.57;;;1.60;;
29908;SDS011;36247;51.952;6.146;2024-01-15T14:23:22;9.50;;;2.03;;
29908;SDS011;36247;51.952;6.146;2024-01-15T14:25:48;7.10;;;2.08;;
29908;SDS011;36247;51.952;6.146;2024-01-15T14:28:14;7.55;;;2.30;;
29908;SDS011;36247;51.952;6.146;2024-01-15T14:30:40;8.80;;;2.08;;
29908;SDS011;36247;51.952;6.146;2024-01-15T14:33:08;6.18;;;1.85;;
29908;SDS011;36247;51.952;6.146;2024-01-15T14:35:37;7.43;;;1.80;;
29908;SDS011;36247;51.952;6.146;2024-01-15T14:38:14;9.57;;;2.13;;
29908;SDS011;36247;51.952;6.146;2024-01-15T14:40:46;3.80;;;1.55;;
29908;SDS011;36247;51.952;6.146;2024-01-15T14:43:21;7.95;;;2.10;;
29908;SDS011;36247;51.952;6.146;2024-01-15T14:46:39;5.55;;;1.75;;
29908;SDS011;36247;51.952;6.146;2024-01-15T14:49:09;6.30;;;1.73;;
29908;SDS011;36247;51.952;6.146;2024-01-15T14:51:52;6.75;;;1.73;;
29908;SDS011;36247;51.952;6.146;2024-01-15T14:54:27;7.13;;;1.63;;
29908;SDS011;36247;51.952;6.146;2024-01-15T14:56:53;6.82;;;1.60;;
29908;SDS011;36247;51.952;6.146;2024-01-15T14:59:19;6.22;;;1.75;;